Time;durP1;ratioP1;P1;durP2;ratioP2;P2;SDS_P1;SDS_P2;PMS_P1;PMS_P2;Temp;Humidity;BMP_temperature;BMP_pressure;BME280_temperature;BME280_humidity;BME280_pressure;Samples;Min_cycle;Max_cycle;Signal;HPM_P1;HPM_P2
2023/05/07 00:01:00;;;;;;;7.40;6.10;;;;;;;8.13;86.25;100696.45;128752;1295;129225;-70
2023/05/07 00:04:38;;;;;;;;;;;;;;;;;;;;;
2023/05/07 00:08:41;;;;;;;7.10;5.30;;;;;;;8.14;86.05;100699.44;128830;1278;114900;-70
2023/05/07 00:12:33;;;;;;;;;;;;;;;;;;;;;
2023/05/07 00:16:15;;;;;;;8.90;5.00;;;;;;;8.14;85.78;100701.02;127628;1286;114739;-69
2023/05/07 00:20:00;;;;;;;;;;;;;;;;;;;;;
2023/05/07 00:24:00;;;;;;;7.60;5.40;;;;;;;8.14;85.61;100703.02;126836;1300;129832;-71
2023/05/07 00:27:45;;;;;;;8.70;6.20;;;;;;;8.15;85.79;100706.17;126521;1292;115358;-70
2023/05/07 00:31:41;;;;;;;7.60;5.10;;;;;;;8.16;85.84;100706.30;126798;1286;114983;-70
2023/05/07 00:35:22;;;;;;;9.20;6.80;;;;;;;8.16;85.70;100707.55;126812;1310;114935;-71
2023/05/07 00:38:55;;;;;;;8.60;6.00;;;;;;;8.14;85.79;100709.39;126737;1288;114759;-71
2023/05/07 00:42:56;;;;;;;9.20;6.30;;;;;;;8.14;85.79;100706.55;127678;1300;126764;-70
2023/05/07 00:46:55;;;;;;;9.30;5.10;;;;;;;8.17;86.06;100715.19;127529;1284;116640;-70
2023/05/07 00:50:48;;;;;;;;;;;;;;;;;;;;;
2023/05/07 00:54:51;;;;;;;11.10;5.80;;;;;;;8.14;85.70;100718.48;126357;1298;114875;-69
2023/05/07 00:58:43;;;;;;;;;;;;;;;;;;;;;
2023/05/07 01:02:32;;;;;;;6.40;4.90;;;;;;;8.10;85.80;100722.89;125310;1322;129720;-71
2023/05/07 01:06:30;;;;;;;5.90;4.80;;;;;;;8.07;85.71;100723.33;125626;1304;114982;-70
2023/05/07 01:10:23;;;;;;;8.30;5.90;;;;;;;8.04;85.91;100721.09;124254;1316;114878;-71
2023/05/07 01:18:47;;;;;;;;;;;;;;;;;;;;;
2023/05/07 01:22:49;;;;;;;;;;;;;;;;;;;;;
2023/05/07 01:26:48;;;;;;;8.40;6.20;;;;;;;8.03;85.94;100718.99;121905;1305;5348542;-71
2023/05/07 01:30:36;;;;;;;8.70;6.00;;;;;;;8.03;85.90;100722.02;125268;1302;115330;-71
2023/05/07 01:34:18;;;;;;;9.00;6.10;;;;;;;8.04;85.89;100718.42;124488;1313;114910;-70
2023/05/07 01:38:09;;;;;;;;;;;;;;;;;;;;;
2023/05/07 01:46:12;;;;;;;7.50;5.80;;;;;;;8.04;85.65;100731.05;126616;1304;636028;-71
2023/05/07 01:50:15;;;;;;;6.20;5.40;;;;;;;8.01;85.65;100734.02;128961;1266;128091;-71
2023/05/07 01:54:17;;;;;;;6.50;5.70;;;;;;;7.98;85.84;100733.39;128038;1284;115328;-71
2023/05/07 01:58:13;;;;;;;8.60;6.10;;;;;;;7.95;85.25;100731.34;122947;1308;5434378;-71
2023/05/07 02:02:07;;;;;;;6.90;6.00;;;;;;;7.94;85.38;100734.58;125705;1302;114900;-71
2023/05/07 02:06:01;;;;;;;;;;;;;;;;;;;;;
2023/05/07 02:10:02;;;;;;;;;;;;;;;;;;;;;
2023/05/07 02:13:53;;;;;;;9.50;6.00;;;;;;;7.89;85.27;100741.66;123597;1330;115357;-71
2023/05/07 02:18:18;;;;;;;6.70;5.60;;;;;;;7.93;85.56;100744.73;126021;1298;635848;-71
2023/05/07 02:22:21;;;;;;;8.50;5.70;;;;;;;7.89;85.15;100746.30;128974;1273;127887;-71
2023/05/07 02:26:02;;;;;;;6.90;5.60;;;;;;;7.86;85.37;100741.77;127750;1286;115455;-72
2023/05/07 02:30:00;;;;;;;7.40;6.20;;;;;;;7.87;85.30;100744.41;126807;1286;5503221;-71
2023/05/07 02:34:03;;;;;;;8.10;6.10;;;;;;;7.86;85.54;100739.98;127353;1292;114877;-72
2023/05/07 02:37:59;;;;;;;9.70;6.90;;;;;;;7.85;85.26;100740.20;127245;1293;127564;-71
2023/05/07 02:42:03;;;;;;;8.00;5.70;;;;;;;7.83;85.25;100748.98;126479;1292;115329;-72
2023/05/07 02:45:56;;;;;;;10.50;6.90;;;;;;;7.78;85.14;100749.84;125820;1306;114920;-72
2023/05/07 02:49:43;;;;;;;;;;;;;;;;;;;;;
2023/05/07 02:53:35;;;;;;;9.30;6.40;;;;;;;7.73;84.97;100759.41;124472;1305;114989;-71
2023/05/07 03:01:49;;;;;;;12.90;7.00;;;;;;;7.75;84.64;100757.40;126404;1298;638560;-71
2023/05/07 03:05:34;;;;;;;;;;;;;;;;;;;;;
2023/05/07 03:09:28;;;;;;;;;;;;;;;;;;;;;
2023/05/07 03:13:25;;;;;;;;;;;;;;;;;;;;;
2023/05/07 03:17:17;;;;;;;11.50;5.60;;;;;;;7.69;84.69;100767.17;121271;1328;114969;-70
2023/05/07 03:21:05;;;;;;;9.10;4.60;;;;;;;7.67;84.39;100771.52;124537;1319;114982;-69
2023/05/07 03:24:58;;;;;;;8.10;4.80;;;;;;;7.66;84.46;100777.06;124462;1310;114905;-71
2023/05/07 03:28:51;;;;;;;;;;;;;;;;;;;;;
2023/05/07 03:32:44;;;;;;;;;;;;;;;;;;;;;
2023/05/07 03:41:13;;;;;;;;;;;;;;;;;;;;;
2023/05/07 03:45:16;;;;;;;5.80;4.20;;;;;;;7.66;84.20;100788.44;127837;1280;128637;-71
2023/05/07 03:49:19;;;;;;;6.50;4.10;;;;;;;7.65;84.28;100786.31;126580;1295;116581;-69
2023/05/07 03:53:13;;;;;;;;;;;;;;;;;;;;;
2023/05/07 03:57:45;;;;;;;;;;;;;;;;;;;;;
2023/05/07 04:01:42;;;;;;;8.30;5.40;;;;;;;7.71;84.27;100810.15;128045;1292;128044;-72
2023/05/07 04:05:43;;;;;;;9.10;5.80;;;;;;;7.72;84.21;100814.90;127682;1287;116590;-71
2023/05/07 04:09:40;;;;;;;7.00;5.40;;;;;;;7.71;84.27;100825.42;123204;1293;5458833;-72
2023/05/07 04:13:34;;;;;;;;;;;;;;;;;;;;;
2023/05/07 04:17:36;;;;;;;9.10;6.80;;;;;;;7.66;84.52;100833.21;125268;1308;115002;-72
2023/05/07 04:25:48;;;;;;;26.70;19.60;;;;;;;7.65;84.31;100838.77;126554;1295;635667;-72
2023/05/07 04:29:51;;;;;;;25.40;19.10;;;;;;;7.69;84.37;100847.70;127988;1284;126683;-72
2023/05/07 04:33:47;;;;;;;10.10;6.50;;;;;;;7.76;84.36;100849.48;126735;1290;114895;-72
2023/05/07 04:37:32;;;;;;;;;;;;;;;;;;;;;
2023/05/07 04:41:35;;;;;;;10.00;6.30;;;;;;;7.87;84.06;100859.12;126102;1298;115764;-73
2023/05/07 04:45:28;;;;;;;28.60;20.70;;;;;;;7.98;84.00;100857.02;125755;1304;114989;-72
2023/05/07 04:49:02;;;;;;;;;;;;;;;;;;;;;
2023/05/07 04:52:56;;;;;;;15.40;11.80;;;;;;;8.21;83.73;100863.98;125030;1323;115311;-72
2023/05/07 04:56:20;;;;;;;7.80;6.20;;;;;;;8.25;83.14;100870.27;124613;1308;115351;-72
2023/05/07 04:59:49;;;;;;;10.80;6.40;;;;;;;8.22;82.98;100872.66;124476;1324;115248;-72
2023/05/07 05:03:27;;;;;;;12.00;7.50;;;;;;;8.17;82.92;100878.49;124629;1320;114830;-72
2023/05/07 05:07:24;;;;;;;7.10;5.90;;;;;;;8.16;82.76;100883.70;124904;1322;127923;-71
2023/05/07 05:11:17;;;;;;;;;;;;;;;;;;;;;
2023/05/07 05:15:13;;;;;;;;;;;;;;;;;;;;;
2023/05/07 05:23:37;;;;;;;7.90;7.10;;;;;;;8.01;82.72;100906.38;125461;1301;637439;-73
2023/05/07 05:27:32;;;;;;;7.50;5.90;;;;;;;7.99;82.94;100914.77;127926;1283;127748;-72
2023/05/07 05:31:31;;;;;;;8.90;6.80;;;;;;;7.99;82.60;100913.19;127277;1289;115227;-73
2023/05/07 05:35:19;;;;;;;;;;;;;;;;;;;;;
2023/05/07 05:38:58;;;;;;;;;;;;;;;;;;;;;
2023/05/07 05:43:03;;;;;;;8.80;5.80;;;;;;;8.18;82.56;100917.42;126089;1296;114944;-72
2023/05/07 05:47:03;;;;;;;;;;;;;;;;;;;;;
2023/05/07 05:50:57;;;;;;;;;;;;;;;;;;;;;
2023/05/07 05:59:23;;;;;;;;;;;;;;;;;;;;;
2023/05/07 06:03:20;;;;;;;7.30;5.60;;;;;;;8.26;81.18;100921.30;129367;1278;127521;-72
2023/05/07 06:07:06;;;;;;;;;;;;;;;;;;;;;
2023/05/07 06:11:13;;;;;;;8.40;6.30;;;;;;;8.34;80.95;100929.96;127814;1270;5432577;-73
2023/05/07 06:15:05;;;;;;;6.00;5.10;;;;;;;8.31;80.39;100936.27;127792;1277;114871;-73
2023/05/07 06:18:59;;;;;;;8.20;5.90;;;;;;;8.32;80.80;100935.52;127912;1280;129644;-74
2023/05/07 06:22:40;;;;;;;5.50;4.70;;;;;;;8.41;80.61;100937.58;126776;1295;115455;-73
2023/05/07 06:26:39;;;;;;;;;;;;;;;;;;;;;
2023/05/07 06:30:20;;;;;;;6.80;4.90;;;;;;;8.42;80.12;100942.37;125806;1301;114943;-72
2023/05/07 06:34:13;;;;;;;;;;;;;;;;;;;;;
2023/05/07 06:38:47;;;;;;;6.50;4.20;;;;;;;8.35;78.94;100954.50;125607;1302;638539;-73
2023/05/07 06:42:30;;;;;;;7.10;5.90;;;;;;;8.35;79.11;100964.98;128859;1277;127785;-74
2023/05/07 06:46:20;;;;;;;4.50;4.00;;;;;;;8.34;78.36;100971.95;127941;1286;115406;-73
2023/05/07 06:50:30;;;;;;;4.30;3.80;;;;;;;8.25;78.43;100970.97;126668;1292;5487225;-73
2023/05/07 06:54:20;;;;;;;;;;;;;;;;;;;;;
2023/05/07 07:02:54;;;;;;;3.50;3.10;;;;;;;8.41;78.53;100982.45;126445;1296;637344;-74
2023/05/07 07:06:22;;;;;;;3.70;3.30;;;;;;;8.51;78.01;100975.94;127744;1285;129057;-74
2023/05/07 07:10:18;;;;;;;4.90;4.20;;;;;;;8.65;78.23;100978.55;127128;1300;116826;-74
2023/05/07 07:14:17;;;;;;;;;;;;;;;;;;;;;
2023/05/07 07:18:17;;;;;;;3.90;3.30;;;;;;;8.77;77.38;100987.44;122326;1293;114964;-74
2023/05/07 07:22:10;;;;;;;4.60;3.90;;;;;;;8.87;77.37;100988.39;125690;1298;114894;-74
2023/05/07 07:25:50;;;;;;;5.40;4.40;;;;;;;8.86;76.90;100992.34;125217;1308;114916;-75
2023/05/07 07:29:28;;;;;;;5.80;3.90;;;;;;;8.87;76.53;100998.70;125057;1311;128934;-73
2023/05/07 07:33:05;;;;;;;;;;;;;;;;;;;;;
2023/05/07 07:37:07;;;;;;;5.60;4.70;;;;;;;8.98;77.32;101002.65;124454;1333;114931;-74
2023/05/07 07:41:03;;;;;;;6.60;5.30;;;;;;;9.03;76.63;101010.14;124261;1316;114918;-73
2023/05/07 07:45:06;;;;;;;;;;;;;;;;;;;;;
2023/05/07 07:53:31;;;;;;;6.10;5.10;;;;;;;8.95;75.94;101029.47;125747;1303;638032;-77
2023/05/07 08:05:10;;;;;;;7.20;5.90;;;;;;;8.73;75.50;101046.70;122379;1298;5438594;-72
2023/05/07 08:08:51;;;;;;;8.90;7.00;;;;;;;8.70;76.28;101042.52;124755;1331;115050;-71
2023/05/07 08:12:43;;;;;;;13.70;9.40;;;;;;;8.73;76.22;101042.60;124753;1331;115024;-72
2023/05/07 08:16:35;;;;;;;15.90;11.60;;;;;;;8.76;76.17;101040.38;124389;1319;116591;-68
2023/05/07 08:24:16;;;;;;;13.70;8.10;;;;;;;8.79;76.19;101048.83;125931;1299;638574;-72
2023/05/07 08:27:48;;;;;;;;;;;;;;;;;;;;;
2023/05/07 08:31:51;;;;;;;;;;;;;;;;;;;;;
2023/05/07 08:35:36;;;;;;;;;;;;;;;;;;;;;
2023/05/07 08:39:13;;;;;;;8.30;6.30;;;;;;;8.42;75.88;101066.96;126481;1277;3410080;-77
2023/05/07 08:42:37;;;;;;;7.50;6.60;;;;;;;8.40;76.29;101071.10;129442;1287;114852;-74
2023/05/07 08:46:31;;;;;;;8.00;6.90;;;;;;;8.42;76.53;101072.30;129186;1271;128361;-77
2023/05/07 08:50:31;;;;;;;8.10;6.10;;;;;;;8.47;75.91;101079.29;128951;1272;114931;-71
2023/05/07 08:54:15;;;;;;;;;;;;;;;;;;;;;
2023/05/07 08:57:52;;;;;;;;;;;;;;;;;;;;;
2023/05/07 09:01:46;;;;;;;;;;;;;;;;;;;;;
2023/05/07 09:06:04;;;;;;;8.80;5.70;;;;;;;8.61;75.53;101094.21;127263;1295;129695;-72
2023/05/07 09:10:04;;;;;;;7.50;5.70;;;;;;;8.64;75.05;101098.21;126456;1306;115336;-73
2023/05/07 09:14:03;;;;;;;;;;;;;;;;;;;;;
2023/05/07 09:17:50;;;;;;;;;;;;;;;;;;;;;
2023/05/07 09:30:06;;;;;;;7.80;6.80;;;;;;;8.75;75.56;101106.31;125757;1313;636368;-77
2023/05/07 09:34:09;;;;;;;11.50;8.40;;;;;;;9.02;75.36;101107.45;127870;1303;127565;-76
2023/05/07 09:38:01;;;;;;;11.30;7.60;;;;;;;9.27;75.22;101099.94;126336;1315;115279;-75
2023/05/07 09:42:01;;;;;;;;;;;;;;;;;;;;;
2023/05/07 09:45:51;;;;;;;;;;;;;;;;;;;;;
2023/05/07 09:54:33;;;;;;;;;;;;;;;;;;;;;
2023/05/07 09:58:26;;;;;;;8.50;6.20;;;;;;;10.72;73.79;101079.66;127712;1304;128751;-77
2023/05/07 10:02:52;;;;;;;6.50;4.90;;;;;;;10.93;71.83;101086.55;126936;1292;115281;-76
2023/05/07 10:06:16;;;;;;;8.50;5.30;;;;;;;10.94;70.24;101093.85;122383;1293;5420210;-77
2023/05/07 10:10:18;;;;;;;5.10;4.60;;;;;;;10.91;69.86;101097.18;125903;1316;114776;-76
2023/05/07 10:18:48;;;;;;;5.20;4.70;;;;;;;11.00;69.61;101104.34;125644;1302;639777;-77
2023/05/07 10:22:44;;;;;;;;;;;;;;;;;;;;;
2023/05/07 10:26:15;;;;;;;;;;;;;;;11.39;69.44;101102.98;125716;1307;114863;-76
2023/05/07 10:30:40;;;;;;;6.00;3.80;;;;;;;11.60;69.04;101107.73;125614;1306;114841;-79
2023/05/07 10:38:26;;;;;;;5.30;4.20;;;;;;;11.58;67.90;101105.30;124570;1312;114948;-80
2023/05/07 10:42:17;;;;;;;3.90;3.60;;;;;;;11.45;66.43;101110.28;123868;1323;115144;-79
2023/05/07 10:50:47;;;;;;;4.20;3.80;;;;;;;11.37;66.82;101112.58;125919;1301;639719;-77
2023/05/07 10:59:14;;;;;;;;;;;;;;;;;;;;;
2023/05/07 11:03:15;;;;;;;6.50;4.60;;;;;;;11.39;66.91;101107.27;122156;1299;5509198;-78
2023/05/07 11:07:08;;;;;;;;;;;;;;;;;;;;;
2023/05/07 11:11:09;;;;;;;;;;;;;;;;;;;;;
2023/05/07 11:15:20;;;;;;;;;;;;;;;;;;;;;
2023/05/07 11:27:55;;;;;;;4.80;3.90;;;;;;;11.02;65.65;101122.50;128573;1274;128902;-77
2023/05/07 11:32:00;;;;;;;6.20;5.30;;;;;;;11.15;66.08;101124.35;128244;1283;115737;-79
2023/05/07 11:36:04;;;;;;;5.90;4.20;;;;;;;11.15;65.45;101131.85;123184;1302;5421162;-82
2023/05/07 11:40:04;;;;;;;;;;;;;;;;;;;;;
2023/05/07 11:44:06;;;;;;;3.90;3.60;;;;;;;10.96;65.43;101142.57;125044;1313;115002;-80
2023/05/07 11:52:40;;;;;;;6.20;4.00;;;;;;;11.38;65.42;101146.86;126006;1318;636940;-81
2023/05/07 11:56:43;;;;;;;5.90;3.80;;;;;;;11.44;65.48;101152.73;127886;1287;128676;-81
2023/05/07 12:00:43;;;;;;;3.90;3.50;;;;;;;11.37;64.71;101159.79;126409;1297;114932;-77
2023/05/07 12:04:43;;;;;;;;;;;;;;;;;;;;;
2023/05/07 12:08:43;;;;;;;;;;;;;;;;;;;;;
2023/05/07 12:12:43;;;;;;;6.50;4.80;;;;;;;11.44;64.84;101157.89;124327;1315;115062;-77
2023/05/07 12:17:12;;;;;;;4.60;3.80;;;;;;;11.54;64.59;101160.19;125906;1301;642122;-79
2023/05/07 12:21:17;;;;;;;4.30;3.70;;;;;;;11.48;63.84;101159.91;128513;1281;128346;-78
2023/05/07 12:25:26;;;;;;;5.10;4.30;;;;;;;11.39;63.57;101162.04;127250;1290;115410;-78
2023/05/07 12:29:30;;;;;;;6.50;4.70;;;;;;;11.30;63.67;101167.76;122819;1294;5444369;-77
2023/05/07 12:33:34;;;;;;;5.90;4.50;;;;;;;11.34;64.39;101168.84;125874;1321;114872;-76
2023/05/07 12:37:23;;;;;;;6.90;5.00;;;;;;;11.47;64.38;101174.08;125093;1321;114891;-78
2023/05/07 12:41:29;;;;;;;5.00;4.50;;;;;;;11.54;63.74;101179.66;125011;1308;128787;-80
2023/05/07 12:49:59;;;;;;;9.20;6.10;;;;;;;11.42;63.29;101176.23;125418;1304;639486;-78
2023/05/07 12:53:46;;;;;;;7.00;4.90;;;;;;;11.38;63.72;101178.16;128836;1276;129834;-81
2023/05/07 12:57:48;;;;;;;6.70;5.50;;;;;;;11.38;63.62;101174.77;128819;1295;116208;-79
2023/05/07 13:01:50;;;;;;;6.20;5.60;;;;;;;11.41;63.02;101177.88;123782;1286;5436559;-80
2023/05/07 13:05:34;;;;;;;5.80;5.20;;;;;;;11.47;62.91;101185.33;127638;1285;115417;-82
2023/05/07 13:09:44;;;;;;;;;;;;;;;;;;;;;
2023/05/07 13:13:36;;;;;;;7.20;6.20;;;;;;;11.31;63.30;101189.87;125678;1320;129732;-81
2023/05/07 13:17:19;;;;;;;7.30;5.80;;;;;;;11.31;62.93;101195.96;125588;1304;114784;-77
2023/05/07 13:21:11;;;;;;;;;;;;;;;;;;;;;
2023/05/07 13:25:03;;;;;;;;;;;;;;;;;;;;;
2023/05/07 13:29:28;;;;;;;6.60;5.10;;;;;;;11.36;62.53;101207.58;125580;1303;638679;-78
2023/05/07 13:33:24;;;;;;;;;;;;;;;;;;;;;
2023/05/07 13:37:18;;;;;;;;;;;;;;;;;;;;;
2023/05/07 13:41:14;;;;;;;;;;;;;;;;;;;;;
2023/05/07 13:45:31;;;;;;;;;;;;;;;;;;;;;
2023/05/07 13:49:33;;;;;;;6.90;3.90;;;;;;;11.09;62.03;101223.06;125484;1308;114914;-82
2023/05/07 13:53:26;;;;;;;;;;;;;;;;;;;;;
2023/05/07 13:57:22;;;;;;;;;;;;;;;;;;;;;
2023/05/07 14:01:08;;;;;;;;;;;;;;;;;;;;;
2023/05/07 14:05:35;;;;;;;;;;;;;;;;;;;;;
2023/05/07 14:09:33;;;;;;;;;;;;;;;;;;;;;
2023/05/07 14:13:29;;;;;;;;;;;;;;;;;;;;;
2023/05/07 14:17:24;;;;;;;;;;;;;;;;;;;;;
2023/05/07 14:25:54;;;;;;;9.50;7.10;;;;;;;10.71;63.17;101218.52;125801;1298;636793;-78
2023/05/07 14:29:18;;;;;;;7.90;5.60;;;;;;;10.75;62.93;101218.02;126888;1287;128198;-79
2023/05/07 14:33:20;;;;;;;;;;;;;;;;;;;;;
2023/05/07 14:37:19;;;;;;;;;;;;;;;;;;;;;
2023/05/07 14:41:21;;;;;;;4.80;4.20;;;;;;;10.97;62.93;101220.65;122687;1287;114759;-77
2023/05/07 14:45:13;;;;;;;;;;;;;;;;;;;;;
2023/05/07 14:53:49;;;;;;;4.90;4.10;;;;;;;11.02;62.84;101224.59;125891;1310;638760;-72
2023/05/07 14:57:52;;;;;;;4.50;4.10;;;;;;;11.02;63.13;101225.47;127714;1286;128858;-76
2023/05/07 15:01:55;;;;;;;5.90;4.80;;;;;;;10.95;62.54;101230.88;126403;1305;114942;-76
2023/05/07 15:05:50;;;;;;;;;;;;;;;;;;;;;
2023/05/07 15:09:51;;;;;;;6.30;5.70;;;;;;;10.84;62.92;101232.35;125141;1304;114993;-75
2023/05/07 15:13:36;;;;;;;11.30;6.30;;;;;;;10.84;63.26;101231.13;124961;1307;115004;-77
2023/05/07 15:22:02;;;;;;;;;;;;;;;;;;;;;
2023/05/07 15:26:08;;;;;;;;;;;;;;;;;;;;;
2023/05/07 15:30:30;;;;;;;10.00;7.00;;;;;;;11.03;62.63;101238.83;125602;1300;638489;-77
2023/05/07 15:34:22;;;;;;;;;;;;;;;;;;;;;
2023/05/07 15:38:26;;;;;;;19.60;11.00;;;;;;;10.92;62.79;101244.60;127070;1287;115737;-75
2023/05/07 15:42:27;;;;;;;7.00;4.80;;;;;;;10.75;62.50;101249.13;121897;1316;5422928;-76
2023/05/07 15:50:55;;;;;;;;;;;;;;;;;;;;;
2023/05/07 15:54:44;;;;;;;;;;;;;;;;;;;;;
2023/05/07 15:58:48;;;;;;;6.10;4.50;;;;;;;10.65;63.25;101246.42;126056;1295;116402;-77
2023/05/07 16:02:49;;;;;;;7.70;5.10;;;;;;;10.59;63.52;101238.77;121600;1307;5420800;-76
2023/05/07 16:06:46;;;;;;;6.70;5.50;;;;;;;10.57;63.38;101236.34;125172;1309;115065;-77
2023/05/07 16:10:34;;;;;;;5.80;5.20;;;;;;;10.57;63.58;101234.38;124633;1332;115004;-76
2023/05/07 16:19:08;;;;;;;6.40;5.00;;;;;;;10.59;63.75;101242.70;125850;1303;639059;-76
2023/05/07 16:22:52;;;;;;;;;;;;;;;;;;;;;
2023/05/07 16:26:36;;;;;;;;;;;;;;;;;;;;;
2023/05/07 16:30:47;;;;;;;6.90;5.50;;;;;;;10.46;63.48;101248.67;122956;1292;5448374;-74
2023/05/07 16:34:39;;;;;;;7.10;5.30;;;;;;;10.42;63.77;101250.60;126500;1313;114920;-77
2023/05/07 16:38:31;;;;;;;9.00;6.70;;;;;;;10.41;63.81;101251.55;126208;1298;114952;-77
2023/05/07 16:42:16;;;;;;;6.60;5.50;;;;;;;10.43;64.30;101253.06;125668;1322;115240;-77
2023/05/07 16:45:52;;;;;;;8.20;6.30;;;;;;;10.42;64.02;101260.60;125679;1302;129901;-78
2023/05/07 16:49:41;;;;;;;69.70;32.50;;;;;;;10.39;64.19;101258.91;125660;1305;114946;-79
2023/05/07 16:53:35;;;;;;;;;;;;;;;;;;;;;
2023/05/07 16:58:10;;;;;;;13.70;10.00;;;;;;;10.29;64.01;101249.41;125591;1301;637992;-80
2023/05/07 17:02:10;;;;;;;;;;;;;;;;;;;;;
2023/05/07 17:06:14;;;;;;;51.60;32.70;;;;;;;10.21;64.11;101251.10;126201;1317;115289;-78
2023/05/07 17:10:11;;;;;;;9.20;7.60;;;;;;;10.20;64.02;101253.98;121060;1330;5443976;-76
2023/05/07 17:18:38;;;;;;;12.80;8.20;;;;;;;10.11;63.45;101256.59;126023;1308;636049;-74
2023/05/07 17:22:40;;;;;;;14.40;11.30;;;;;;;10.02;63.67;101264.16;127669;1286;126610;-81
2023/05/07 17:26:42;;;;;;;;;;;;;;;;;;;;;
2023/05/07 17:30:55;;;;;;;6.30;5.10;;;;;;;9.89;63.61;101273.87;122234;1296;5429370;-75
2023/05/07 17:34:56;;;;;;;9.10;6.40;;;;;;;9.83;63.52;101273.70;124577;1331;114993;-79
2023/05/07 17:43:21;;;;;;;;;;;;;;;;;;;;;
2023/05/07 17:47:26;;;;;;;9.40;7.10;;;;;;;9.69;64.14;101284.10;128428;1286;128915;-74
2023/05/07 17:55:39;;;;;;;;;;;;;;;;;;;;;
2023/05/07 17:59:39;;;;;;;7.60;5.90;;;;;;;9.62;64.62;101281.46;129354;1272;129058;-79
2023/05/07 18:03:30;;;;;;;;;;;;;;;;;;;;;
2023/05/07 18:07:44;;;;;;;9.00;7.00;;;;;;;9.50;65.00;101299.27;123722;1285;5497285;-75
2023/05/07 18:11:48;;;;;;;7.80;6.20;;;;;;;9.46;65.25;101291.55;126684;1290;115010;-80
2023/05/07 18:15:32;;;;;;;;;;;;;;;;;;;;;
2023/05/07 18:19:30;;;;;;;10.50;6.70;;;;;;;9.40;65.43;101301.35;123984;1310;130501;-78
2023/05/07 18:23:19;;;;;;;;;;;;;;;;;;;;;
2023/05/07 18:27:53;;;;;;;11.00;8.20;;;;;;;9.39;66.09;101307.62;125701;1304;638392;-82
2023/05/07 18:31:56;;;;;;;12.50;7.00;;;;;;;9.37;66.02;101318.55;127275;1289;128983;-76
2023/05/07 18:35:50;;;;;;;11.70;8.30;;;;;;;9.34;66.47;101317.74;127024;1310;115353;-79
2023/05/07 18:39:52;;;;;;;10.30;7.00;;;;;;;9.30;66.10;101318.39;122707;1292;5500171;-78
2023/05/07 18:43:30;;;;;;;12.20;8.50;;;;;;;9.25;66.48;101321.58;126641;1294;115006;-72
2023/05/07 18:46:56;;;;;;;7.90;6.90;;;;;;;9.23;66.75;101326.79;126414;1311;114958;-73
2023/05/07 18:50:59;;;;;;;17.10;9.40;;;;;;;9.19;66.78;101331.16;125985;1299;114796;-79
2023/05/07 18:59:27;;;;;;;;;;;;;;;;;;;;;
2023/05/07 19:03:31;;;;;;;9.60;7.70;;;;;;;9.12;67.05;101342.76;128743;1277;128786;-78
2023/05/07 19:07:36;;;;;;;11.80;7.60;;;;;;;9.09;66.91;101348.20;127521;1297;114988;-71
2023/05/07 19:11:38;;;;;;;14.80;8.00;;;;;;;9.05;67.20;101349.35;122324;1300;5557154;-70
2023/05/07 19:15:40;;;;;;;24.50;14.60;;;;;;;9.04;66.97;101351.00;125184;1320;114958;-81
2023/05/07 19:19:29;;;;;;;26.60;16.60;;;;;;;9.03;67.44;101358.66;125548;1305;115391;-72
2023/05/07 19:27:45;;;;;;;;;;;;;;;;;;;;;
2023/05/07 19:31:50;;;;;;;30.40;19.50;;;;;;;8.97;67.09;101372.73;127766;1285;128779;-77
2023/05/07 19:35:38;;;;;;;;;;;;;;;;;;;;;
2023/05/07 19:39:10;;;;;;;;;;;;;;;;;;;;;
2023/05/07 19:43:30;;;;;;;20.30;15.50;;;;;;;8.95;67.18;101378.48;126850;1290;114770;-77
2023/05/07 19:47:29;;;;;;;12.90;9.60;;;;;;;8.90;66.99;101380.22;125937;1300;129979;-71
2023/05/07 19:51:11;;;;;;;10.40;8.00;;;;;;;8.86;66.36;101383.52;125342;1308;115399;-81
2023/05/07 19:58:54;;;;;;;;;;;;;;;;;;;;;
2023/05/07 20:03:17;;;;;;;7.60;6.60;;;;;;;8.89;66.26;101392.01;125739;1296;638559;-70
2023/05/07 20:07:11;;;;;;;;;;;;;;;;;;;;;
2023/05/07 20:10:56;;;;;;;;;;;;;;;;;;;;;
2023/05/07 20:14:51;;;;;;;;;;;;;;;;;;;;;
2023/05/07 20:18:54;;;;;;;10.70;6.10;;;;;;;8.84;66.19;101397.64;122382;1301;114860;-73
2023/05/07 20:22:56;;;;;;;8.80;7.40;;;;;;;8.84;66.62;101398.90;125124;1313;114981;-70
2023/05/07 20:26:40;;;;;;;;;;;;;;;;;;;;;
2023/05/07 20:30:34;;;;;;;;;;;;;;;;;;;;;
2023/05/07 20:34:48;;;;;;;10.00;6.70;;;;;;;8.80;66.55;101403.43;126453;1290;640121;-70
2023/05/07 20:38:45;;;;;;;12.90;7.70;;;;;;;8.74;66.67;101408.03;128934;1293;127537;-71
2023/05/07 20:42:19;;;;;;;10.50;7.90;;;;;;;8.70;66.85;101410.98;128271;1281;115862;-69
2023/05/07 20:46:25;;;;;;;12.40;9.80;;;;;;;8.66;66.25;101408.23;128286;1278;114805;-71
2023/05/07 20:50:32;;;;;;;14.10;9.00;;;;;;;8.63;66.26;101409.71;125777;1288;114859;-70
2023/05/07 20:54:21;;;;;;;;;;;;;;;;;;;;;
2023/05/07 20:58:13;;;;;;;11.20;7.70;;;;;;;8.54;65.71;101416.16;126886;1292;114938;-68
2023/05/07 21:01:57;;;;;;;;;;;;;;;;;;;;;
2023/05/07 21:06:02;;;;;;;11.30;9.20;;;;;;;8.34;65.52;101420.13;126969;1292;114844;-72
2023/05/07 21:09:45;;;;;;;9.70;7.60;;;;;;;8.20;65.37;101426.49;126404;1296;114831;-72
2023/05/07 21:13:20;;;;;;;10.10;7.70;;;;;;;8.08;65.45;101431.73;126005;1302;114945;-73
2023/05/07 21:17:14;;;;;;;13.00;9.60;;;;;;;7.95;65.70;101438.05;126301;1296;114872;-73
2023/05/07 21:21:13;;;;;;;;;;;;;;;;;;;;;
2023/05/07 21:25:05;;;;;;;13.80;9.20;;;;;;;7.70;66.33;101443.14;125773;1299;115470;-70
2023/05/07 21:29:07;;;;;;;10.90;8.20;;;;;;;7.58;66.16;101449.06;125621;1321;116626;-72
2023/05/07 21:33:08;;;;;;;;;;;;;;;;;;;;;
2023/05/07 21:37:00;;;;;;;;;;;;;;;;;;;;;
2023/05/07 21:41:01;;;;;;;;;;;;;;;;;;;;;
2023/05/07 21:45:24;;;;;;;;;;;;;;;;;;;;;
2023/05/07 21:53:17;;;;;;;11.30;7.90;;;;;;;6.84;67.30;101458.50;126788;1289;115422;-73
2023/05/07 21:57:11;;;;;;;;;;;;;;;;;;;;;
2023/05/07 22:05:08;;;;;;;12.70;9.30;;;;;;;6.43;67.61;101458.19;125432;1308;115165;-72
2023/05/07 22:13:26;;;;;;;;;;;;;;;;;;;;;
2023/05/07 22:22:01;;;;;;;18.20;14.30;;;;;;;5.99;68.90;101457.12;125759;1300;639378;-70
2023/05/07 22:26:00;;;;;;;;;;;;;;;;;;;;;
2023/05/07 22:30:06;;;;;;;21.20;12.90;;;;;;;5.76;69.54;101455.07;127482;1282;115322;-71
2023/05/07 22:34:01;;;;;;;;;;;;;;;;;;;;;
2023/05/07 22:42:30;;;;;;;17.50;13.50;;;;;;;5.54;70.51;101446.61;125650;1304;638120;-77
2023/05/07 22:46:39;;;;;;;17.30;12.70;;;;;;;5.47;70.89;101442.95;127344;1289;128911;-76
2023/05/07 22:50:42;;;;;;;18.40;11.50;;;;;;;5.42;71.10;101441.41;127097;1287;115364;-76
2023/05/07 22:54:44;;;;;;;16.80;12.20;;;;;;;5.36;71.49;101437.92;121782;1304;5436477;-76
2023/05/07 22:58:26;;;;;;;;;;;;;;;;;;;;;
2023/05/07 23:02:57;;;;;;;20.10;11.60;;;;;;;5.31;71.80;101435.67;126485;1295;639406;-75
2023/05/07 23:06:57;;;;;;;;;;;;;;;;;;;;;
2023/05/07 23:10:54;;;;;;;14.90;10.60;;;;;;;5.21;71.98;101438.77;127163;1290;115321;-77
2023/05/07 23:14:47;;;;;;;;;;;;;;;;;;;;;
2023/05/07 23:18:56;;;;;;;;;;;;;;;;;;;;;
2023/05/07 23:22:46;;;;;;;17.80;9.70;;;;;;;5.04;72.40;101440.70;125434;1318;115309;-75
2023/05/07 23:26:32;;;;;;;15.40;10.30;;;;;;;4.98;72.56;101449.07;125755;1305;114875;-74
2023/05/07 23:35:00;;;;;;;;;;;;;;;;;;;;;
2023/05/07 23:39:03;;;;;;;14.90;11.10;;;;;;;4.80;72.82;101449.19;127420;1287;128901;-76
2023/05/07 23:47:06;;;;;;;16.10;10.20;;;;;;;4.59;72.76;101447.02;121633;1308;5427220;-68
2023/05/07 23:55:24;;;;;;;16.50;11.50;;;;;;;4.45;73.41;101439.86;125879;1310;638707;-69
2023/05/07 23:59:01;;;;;;;16.90;10.20;;;;;;;4.37;73.53;101439.90;128806;1284;128918;-70
